sensor_id;sensor_type;location;lat;lon;timestamp;P1;durP1;ratioP1;P2;durP2;ratioP2
63818;SDS011;49970;54.976;73.248;2024-02-23T00:00:59;90.20;;;40.53;;
63818;SDS011;49970;54.976;73.248;2024-02-23T00:03:26;90.03;;;39.47;;
63818;SDS011;49970;54.976;73.248;2024-02-23T00:05:52;78.43;;;37.33;;
63818;SDS011;49970;54.976;73.248;2024-02-23T00:08:18;82.95;;;39.65;;
63818;SDS011;49970;54.976;73.248;2024-02-23T00:10:45;96.38;;;41.08;;
63818;SDS011;49970;54.976;73.248;2024-02-23T00:13:12;79.15;;;37.88;;
63818;SDS011;49970;54.976;73.248;2024-02-23T00:15:38;103.00;;;45.30;;
63818;SDS011;49970;54.976;73.248;2024-02-23T00:18:04;112.70;;;44.80;;
63818;SDS011;49970;54.976;73.248;2024-02-23T00:20:33;90.60;;;40.25;;
63818;SDS011;49970;54.976;73.248;2024-02-23T00:23:01;94.32;;;43.95;;
63818;SDS011;49970;54.976;73.248;2024-02-23T00:25:28;109.90;;;44.22;;
63818;SDS011;49970;54.976;73.248;2024-02-23T00:27:54;109.55;;;41.65;;
63818;SDS011;49970;54.976;73.248;2024-02-23T00:30:21;100.95;;;39.85;;
63818;SDS011;49970;54.976;73.248;2024-02-23T00:32:47;105.05;;;42.33;;
63818;SDS011;49970;54.976;73.248;2024-02-23T00:35:14;90.70;;;41.42;;
63818;SDS011;49970;54.976;73.248;2024-02-23T00:37:40;103.03;;;41.65;;
63818;SDS011;49970;54.976;73.248;2024-02-23T00:40:07;96.60;;;41.45;;
63818;SDS011;49970;54.976;73.248;2024-02-23T00:42:35;108.28;;;44.45;;
63818;SDS011;49970;54.976;73.248;2024-02-23T00:45:01;97.97;;;40.72;;
63818;SDS011;49970;54.976;73.248;2024-02-23T00:47:27;89.88;;;39.33;;
63818;SDS011;49970;54.976;73.248;2024-02-23T00:49:54;92.95;;;39.13;;
63818;SDS011;49970;54.976;73.248;2024-02-23T00:52:20;94.07;;;43.33;;
63818;SDS011;49970;54.976;73.248;2024-02-23T00:54:46;93.93;;;41.83;;
63818;SDS011;49970;54.976;73.248;2024-02-23T00:57:13;100.72;;;43.80;;
63818;SDS011;49970;54.976;73.248;2024-02-23T00:59:39;93.20;;;43.35;;
63818;SDS011;49970;54.976;73.248;2024-02-23T01:02:06;101.18;;;42.38;;
63818;SDS011;49970;54.976;73.248;2024-02-23T01:04:32;106.07;;;43.45;;
63818;SDS011;49970;54.976;73.248;2024-02-23T01:07:15;100.25;;;44.17;;
63818;SDS011;49970;54.976;73.248;2024-02-23T01:09:42;100.13;;;43.10;;
63818;SDS011;49970;54.976;73.248;2024-02-23T01:12:08;103.82;;;43.65;;
63818;SDS011;49970;54.976;73.248;2024-02-23T01:14:34;104.20;;;45.15;;
63818;SDS011;49970;54.976;73.248;2024-02-23T01:17:01;109.00;;;47.45;;
63818;SDS011;49970;54.976;73.248;2024-02-23T01:19:27;100.63;;;46.22;;
63818;SDS011;49970;54.976;73.248;2024-02-23T01:22:58;112.18;;;43.33;;
63818;SDS011;49970;54.976;73.248;2024-02-23T01:25:24;110.50;;;49.20;;
63818;SDS011;49970;54.976;73.248;2024-02-23T01:27:51;110.43;;;47.35;;
63818;SDS011;49970;54.976;73.248;2024-02-23T01:30:17;107.70;;;47.53;;
63818;SDS011;49970;54.976;73.248;2024-02-23T01:32:45;127.32;;;51.47;;
63818;SDS011;49970;54.976;73.248;2024-02-23T01:35:11;126.43;;;47.35;;
63818;SDS011;49970;54.976;73.248;2024-02-23T01:37:38;107.60;;;47.92;;
63818;SDS011;49970;54.976;73.248;2024-02-23T01:40:04;107.15;;;47.38;;
63818;SDS011;49970;54.976;73.248;2024-02-23T01:42:32;127.22;;;53.92;;
63818;SDS011;49970;54.976;73.248;2024-02-23T01:44:58;111.00;;;49.75;;
63818;SDS011;49970;54.976;73.248;2024-02-23T01:47:26;137.02;;;52.85;;
63818;SDS011;49970;54.976;73.248;2024-02-23T01:49:54;103.45;;;48.25;;
63818;SDS011;49970;54.976;73.248;2024-02-23T01:52:23;124.70;;;51.63;;
63818;SDS011;49970;54.976;73.248;2024-02-23T01:54:50;115.63;;;50.80;;
63818;SDS011;49970;54.976;73.248;2024-02-23T01:57:18;138.63;;;51.65;;
63818;SDS011;49970;54.976;73.248;2024-02-23T01:59:46;121.38;;;48.13;;
63818;SDS011;49970;54.976;73.248;2024-02-23T02:02:14;111.30;;;48.47;;
63818;SDS011;49970;54.976;73.248;2024-02-23T02:04:42;123.78;;;51.22;;
63818;SDS011;49970;54.976;73.248;2024-02-23T02:07:08;110.70;;;47.03;;
63818;SDS011;49970;54.976;73.248;2024-02-23T02:09:35;109.93;;;45.60;;
63818;SDS011;49970;54.976;73.248;2024-02-23T02:12:01;119.47;;;46.33;;
63818;SDS011;49970;54.976;73.248;2024-02-23T02:14:28;114.15;;;48.30;;
63818;SDS011;49970;54.976;73.248;2024-02-23T02:16:57;110.45;;;47.63;;
63818;SDS011;49970;54.976;73.248;2024-02-23T02:19:23;125.47;;;50.65;;
63818;SDS011;49970;54.976;73.248;2024-02-23T02:21:49;128.40;;;51.03;;
63818;SDS011;49970;54.976;73.248;2024-02-23T02:24:16;128.70;;;53.35;;
63818;SDS011;49970;54.976;73.248;2024-02-23T02:26:42;108.68;;;49.13;;
63818;SDS011;49970;54.976;73.248;2024-02-23T02:29:11;129.63;;;50.30;;
63818;SDS011;49970;54.976;73.248;2024-02-23T02:31:37;112.95;;;49.85;;
63818;SDS011;49970;54.976;73.248;2024-02-23T02:34:04;116.70;;;51.03;;
63818;SDS011;49970;54.976;73.248;2024-02-23T02:36:30;119.93;;;49.22;;
63818;SDS011;49970;54.976;73.248;2024-02-23T02:38:57;117.53;;;53.13;;
63818;SDS011;49970;54.976;73.248;2024-02-23T02:41:24;124.43;;;55.28;;
63818;SDS011;49970;54.976;73.248;2024-02-23T02:43:55;136.27;;;56.13;;
63818;SDS011;49970;54.976;73.248;2024-02-23T02:46:21;153.02;;;54.30;;
63818;SDS011;49970;54.976;73.248;2024-02-23T02:48:48;141.75;;;60.65;;
63818;SDS011;49970;54.976;73.248;2024-02-23T02:51:14;133.98;;;56.83;;
63818;SDS011;49970;54.976;73.248;2024-02-23T02:53:41;139.55;;;60.00;;
63818;SDS011;49970;54.976;73.248;2024-02-23T02:56:07;145.68;;;58.05;;
63818;SDS011;49970;54.976;73.248;2024-02-23T02:58:34;139.80;;;60.95;;
63818;SDS011;49970;54.976;73.248;2024-02-23T03:01:00;141.88;;;59.45;;
63818;SDS011;49970;54.976;73.248;2024-02-23T03:03:26;145.25;;;63.45;;
63818;SDS011;49970;54.976;73.248;2024-02-23T03:05:53;132.05;;;60.65;;
63818;SDS011;49970;54.976;73.248;2024-02-23T03:08:19;141.60;;;62.53;;
63818;SDS011;49970;54.976;73.248;2024-02-23T03:10:45;152.07;;;65.72;;
63818;SDS011;49970;54.976;73.248;2024-02-23T03:13:12;150.60;;;63.47;;
63818;SDS011;49970;54.976;73.248;2024-02-23T03:15:38;162.82;;;76.63;;
63818;SDS011;49970;54.976;73.248;2024-02-23T03:18:05;169.95;;;75.68;;
63818;SDS011;49970;54.976;73.248;2024-02-23T03:20:31;196.70;;;87.78;;
63818;SDS011;49970;54.976;73.248;2024-02-23T03:22:57;185.52;;;88.63;;
63818;SDS011;49970;54.976;73.248;2024-02-23T03:25:24;202.55;;;91.05;;
63818;SDS011;49970;54.976;73.248;2024-02-23T03:27:50;205.65;;;94.97;;
63818;SDS011;49970;54.976;73.248;2024-02-23T03:30:16;212.63;;;97.65;;
63818;SDS011;49970;54.976;73.248;2024-02-23T03:32:43;214.05;;;100.55;;
63818;SDS011;49970;54.976;73.248;2024-02-23T03:35:09;218.68;;;99.35;;
63818;SDS011;49970;54.976;73.248;2024-02-23T03:37:36;206.27;;;95.55;;
63818;SDS011;49970;54.976;73.248;2024-02-23T03:40:02;229.20;;;103.90;;
63818;SDS011;49970;54.976;73.248;2024-02-23T03:42:30;218.75;;;103.22;;
63818;SDS011;49970;54.976;73.248;2024-02-23T03:44:56;207.77;;;98.07;;
63818;SDS011;49970;54.976;73.248;2024-02-23T03:47:23;209.30;;;101.80;;
63818;SDS011;49970;54.976;73.248;2024-02-23T03:49:49;206.90;;;102.25;;
63818;SDS011;49970;54.976;73.248;2024-02-23T03:52:16;220.63;;;104.40;;
63818;SDS011;49970;54.976;73.248;2024-02-23T03:54:42;204.45;;;101.35;;
63818;SDS011;49970;54.976;73.248;2024-02-23T03:57:08;213.95;;;100.72;;
63818;SDS011;49970;54.976;73.248;2024-02-23T03:59:36;218.48;;;100.55;;
63818;SDS011;49970;54.976;73.248;2024-02-23T04:02:03;218.43;;;99.80;;
63818;SDS011;49970;54.976;73.248;2024-02-23T04:04:30;210.35;;;106.85;;
63818;SDS011;49970;54.976;73.248;2024-02-23T04:06:56;209.85;;;106.13;;
63818;SDS011;49970;54.976;73.248;2024-02-23T04:09:23;214.45;;;102.00;;
63818;SDS011;49970;54.976;73.248;2024-02-23T04:11:50;215.57;;;99.72;;
63818;SDS011;49970;54.976;73.248;2024-02-23T04:14:16;205.65;;;91.30;;
63818;SDS011;49970;54.976;73.248;2024-02-23T04:16:43;200.07;;;92.93;;
63818;SDS011;49970;54.976;73.248;2024-02-23T04:19:09;194.07;;;96.10;;
63818;SDS011;49970;54.976;73.248;2024-02-23T04:21:36;186.82;;;83.50;;
63818;SDS011;49970;54.976;73.248;2024-02-23T04:24:02;180.32;;;80.55;;
63818;SDS011;49970;54.976;73.248;2024-02-23T04:26:29;191.52;;;87.03;;
63818;SDS011;49970;54.976;73.248;2024-02-23T04:28:55;183.98;;;82.65;;
63818;SDS011;49970;54.976;73.248;2024-02-23T04:32:26;186.77;;;78.70;;
63818;SDS011;49970;54.976;73.248;2024-02-23T04:35:57;192.38;;;80.57;;
63818;SDS011;49970;54.976;73.248;2024-02-23T04:39:31;195.98;;;83.75;;
63818;SDS011;49970;54.976;73.248;2024-02-23T04:43:02;198.15;;;86.70;;
63818;SDS011;49970;54.976;73.248;2024-02-23T04:51:47;191.27;;;82.53;;
63818;SDS011;49970;54.976;73.248;2024-02-23T04:54:13;191.88;;;91.45;;
63818;SDS011;49970;54.976;73.248;2024-02-23T04:56:39;205.38;;;96.07;;
63818;SDS011;49970;54.976;73.248;2024-02-23T04:59:06;221.60;;;103.90;;
63818;SDS011;49970;54.976;73.248;2024-02-23T05:01:38;245.00;;;123.28;;
63818;SDS011;49970;54.976;73.248;2024-02-23T05:04:05;254.60;;;131.13;;
63818;SDS011;49970;54.976;73.248;2024-02-23T05:06:31;254.80;;;131.48;;
63818;SDS011;49970;54.976;73.248;2024-02-23T05:08:58;272.80;;;142.60;;
63818;SDS011;49970;54.976;73.248;2024-02-23T05:11:24;292.65;;;152.20;;
63818;SDS011;49970;54.976;73.248;2024-02-23T05:13:51;310.13;;;166.80;;
63818;SDS011;49970;54.976;73.248;2024-02-23T05:16:17;306.13;;;160.85;;
63818;SDS011;49970;54.976;73.248;2024-02-23T05:18:43;327.77;;;167.48;;
63818;SDS011;49970;54.976;73.248;2024-02-23T05:21:12;319.08;;;169.90;;
63818;SDS011;49970;54.976;73.248;2024-02-23T05:23:41;325.42;;;174.63;;
63818;SDS011;49970;54.976;73.248;2024-02-23T05:26:08;341.70;;;184.95;;
63818;SDS011;49970;54.976;73.248;2024-02-23T05:28:34;363.88;;;190.60;;
63818;SDS011;49970;54.976;73.248;2024-02-23T05:31:02;373.13;;;204.00;;
63818;SDS011;49970;54.976;73.248;2024-02-23T05:33:29;404.23;;;219.02;;
63818;SDS011;49970;54.976;73.248;2024-02-23T05:37:25;390.42;;;205.95;;
63818;SDS011;49970;54.976;73.248;2024-02-23T05:41:21;374.50;;;195.68;;
63818;SDS011;49970;54.976;73.248;2024-02-23T05:43:47;390.95;;;204.68;;
63818;SDS011;49970;54.976;73.248;2024-02-23T05:46:13;445.88;;;260.33;;
63818;SDS011;49970;54.976;73.248;2024-02-23T05:48:40;412.95;;;222.50;;
63818;SDS011;49970;54.976;73.248;2024-02-23T05:51:06;369.40;;;205.77;;
63818;SDS011;49970;54.976;73.248;2024-02-23T05:53:32;351.00;;;184.60;;
63818;SDS011;49970;54.976;73.248;2024-02-23T05:56:00;371.98;;;190.85;;
63818;SDS011;49970;54.976;73.248;2024-02-23T05:58:26;332.08;;;178.70;;
63818;SDS011;49970;54.976;73.248;2024-02-23T06:00:53;347.67;;;181.35;;
63818;SDS011;49970;54.976;73.248;2024-02-23T06:03:19;335.10;;;179.55;;
63818;SDS011;49970;54.976;73.248;2024-02-23T06:05:46;356.88;;;181.50;;
63818;SDS011;49970;54.976;73.248;2024-02-23T06:08:22;345.58;;;180.30;;
63818;SDS011;49970;54.976;73.248;2024-02-23T06:10:48;342.40;;;181.25;;
63818;SDS011;49970;54.976;73.248;2024-02-23T06:13:15;335.10;;;173.63;;
63818;SDS011;49970;54.976;73.248;2024-02-23T06:15:41;327.67;;;170.90;;
63818;SDS011;49970;54.976;73.248;2024-02-23T06:18:09;337.55;;;168.65;;
63818;SDS011;49970;54.976;73.248;2024-02-23T06:20:35;318.60;;;169.50;;
63818;SDS011;49970;54.976;73.248;2024-02-23T06:23:01;276.88;;;143.20;;
63818;SDS011;49970;54.976;73.248;2024-02-23T06:25:28;285.48;;;141.30;;
63818;SDS011;49970;54.976;73.248;2024-02-23T06:27:54;271.48;;;136.50;;
63818;SDS011;49970;54.976;73.248;2024-02-23T06:30:20;238.45;;;121.75;;
63818;SDS011;49970;54.976;73.248;2024-02-23T06:33:07;225.55;;;108.88;;
63818;SDS011;49970;54.976;73.248;2024-02-23T06:35:34;177.07;;;86.13;;
63818;SDS011;49970;54.976;73.248;2024-02-23T06:38:00;176.50;;;78.63;;
63818;SDS011;49970;54.976;73.248;2024-02-23T06:40:26;164.18;;;69.15;;
63818;SDS011;49970;54.976;73.248;2024-02-23T06:42:53;165.30;;;70.35;;
63818;SDS011;49970;54.976;73.248;2024-02-23T06:45:19;149.07;;;68.50;;
63818;SDS011;49970;54.976;73.248;2024-02-23T06:47:51;143.13;;;64.82;;
63818;SDS011;49970;54.976;73.248;2024-02-23T06:50:17;152.15;;;65.35;;
63818;SDS011;49970;54.976;73.248;2024-02-23T06:52:44;159.70;;;63.05;;
63818;SDS011;49970;54.976;73.248;2024-02-23T06:55:10;130.30;;;60.75;;
63818;SDS011;49970;54.976;73.248;2024-02-23T06:57:37;145.25;;;60.55;;
63818;SDS011;49970;54.976;73.248;2024-02-23T07:00:04;164.63;;;67.85;;
63818;SDS011;49970;54.976;73.248;2024-02-23T07:02:31;153.45;;;66.93;;
63818;SDS011;49970;54.976;73.248;2024-02-23T07:05:00;169.77;;;74.13;;
63818;SDS011;49970;54.976;73.248;2024-02-23T07:07:30;173.98;;;75.07;;
63818;SDS011;49970;54.976;73.248;2024-02-23T07:09:57;178.65;;;71.20;;
63818;SDS011;49970;54.976;73.248;2024-02-23T07:12:24;173.18;;;71.60;;
63818;SDS011;49970;54.976;73.248;2024-02-23T07:14:52;150.85;;;62.08;;
63818;SDS011;49970;54.976;73.248;2024-02-23T07:17:19;153.18;;;68.13;;
63818;SDS011;49970;54.976;73.248;2024-02-23T07:19:45;133.40;;;57.45;;
63818;SDS011;49970;54.976;73.248;2024-02-23T07:22:13;146.25;;;63.30;;
63818;SDS011;49970;54.976;73.248;2024-02-23T07:24:41;132.18;;;57.58;;
63818;SDS011;49970;54.976;73.248;2024-02-23T07:27:08;161.27;;;64.82;;
63818;SDS011;49970;54.976;73.248;2024-02-23T07:29:35;155.10;;;64.65;;
63818;SDS011;49970;54.976;73.248;2024-02-23T07:32:01;155.25;;;61.47;;
63818;SDS011;49970;54.976;73.248;2024-02-23T07:34:30;145.50;;;61.35;;
63818;SDS011;49970;54.976;73.248;2024-02-23T07:36:57;158.25;;;61.00;;
63818;SDS011;49970;54.976;73.248;2024-02-23T07:40:26;176.40;;;64.53;;
63818;SDS011;49970;54.976;73.248;2024-02-23T07:43:57;160.48;;;61.38;;
63818;SDS011;49970;54.976;73.248;2024-02-23T07:47:03;157.63;;;61.80;;
63818;SDS011;49970;54.976;73.248;2024-02-23T07:49:29;139.98;;;53.90;;
63818;SDS011;49970;54.976;73.248;2024-02-23T07:51:56;134.30;;;53.13;;
63818;SDS011;49970;54.976;73.248;2024-02-23T07:54:22;154.23;;;57.90;;
63818;SDS011;49970;54.976;73.248;2024-02-23T07:56:49;172.13;;;68.63;;
63818;SDS011;49970;54.976;73.248;2024-02-23T07:59:15;147.38;;;57.33;;
63818;SDS011;49970;54.976;73.248;2024-02-23T08:01:41;139.77;;;51.00;;
63818;SDS011;49970;54.976;73.248;2024-02-23T08:04:08;149.07;;;54.05;;
63818;SDS011;49970;54.976;73.248;2024-02-23T08:06:34;114.53;;;44.63;;
63818;SDS011;49970;54.976;73.248;2024-02-23T08:09:01;110.55;;;42.20;;
63818;SDS011;49970;54.976;73.248;2024-02-23T08:11:28;108.00;;;41.75;;
63818;SDS011;49970;54.976;73.248;2024-02-23T08:13:54;123.50;;;44.80;;
63818;SDS011;49970;54.976;73.248;2024-02-23T08:16:21;109.80;;;48.72;;
63818;SDS011;49970;54.976;73.248;2024-02-23T08:18:47;144.48;;;57.90;;
63818;SDS011;49970;54.976;73.248;2024-02-23T08:21:14;122.32;;;52.22;;
63818;SDS011;49970;54.976;73.248;2024-02-23T08:23:40;117.90;;;49.10;;
63818;SDS011;49970;54.976;73.248;2024-02-23T08:26:07;140.05;;;57.05;;
63818;SDS011;49970;54.976;73.248;2024-02-23T08:28:33;120.85;;;50.13;;
63818;SDS011;49970;54.976;73.248;2024-02-23T08:31:00;123.85;;;49.72;;
63818;SDS011;49970;54.976;73.248;2024-02-23T08:33:26;113.00;;;47.28;;
63818;SDS011;49970;54.976;73.248;2024-02-23T08:35:52;119.18;;;49.28;;
63818;SDS011;49970;54.976;73.248;2024-02-23T08:38:19;100.60;;;45.13;;
63818;SDS011;49970;54.976;73.248;2024-02-23T08:40:45;115.25;;;48.00;;
63818;SDS011;49970;54.976;73.248;2024-02-23T08:43:13;123.97;;;47.80;;
63818;SDS011;49970;54.976;73.248;2024-02-23T08:45:39;154.90;;;54.33;;
63818;SDS011;49970;54.976;73.248;2024-02-23T08:48:06;118.07;;;46.38;;
63818;SDS011;49970;54.976;73.248;2024-02-23T08:50:32;109.47;;;45.38;;
63818;SDS011;49970;54.976;73.248;2024-02-23T08:52:59;125.13;;;49.60;;
63818;SDS011;49970;54.976;73.248;2024-02-23T08:55:26;124.65;;;50.05;;
63818;SDS011;49970;54.976;73.248;2024-02-23T08:58:57;103.05;;;45.10;;
63818;SDS011;49970;54.976;73.248;2024-02-23T09:01:24;111.13;;;41.63;;
63818;SDS011;49970;54.976;73.248;2024-02-23T09:03:50;112.32;;;43.17;;
63818;SDS011;49970;54.976;73.248;2024-02-23T09:06:17;74.00;;;31.17;;
63818;SDS011;49970;54.976;73.248;2024-02-23T09:08:43;83.18;;;33.75;;
63818;SDS011;49970;54.976;73.248;2024-02-23T09:11:09;63.45;;;29.63;;
63818;SDS011;49970;54.976;73.248;2024-02-23T09:13:39;75.50;;;29.13;;
63818;SDS011;49970;54.976;73.248;2024-02-23T09:16:07;64.63;;;27.52;;
63818;SDS011;49970;54.976;73.248;2024-02-23T09:18:34;68.97;;;25.63;;
63818;SDS011;49970;54.976;73.248;2024-02-23T09:21:01;93.82;;;34.13;;
63818;SDS011;49970;54.976;73.248;2024-02-23T09:23:28;86.97;;;33.95;;
63818;SDS011;49970;54.976;73.248;2024-02-23T09:25:54;72.03;;;30.80;;
63818;SDS011;49970;54.976;73.248;2024-02-23T09:28:21;80.43;;;30.50;;
63818;SDS011;49970;54.976;73.248;2024-02-23T09:30:47;82.85;;;32.08;;
63818;SDS011;49970;54.976;73.248;2024-02-23T09:33:14;82.30;;;31.10;;
63818;SDS011;49970;54.976;73.248;2024-02-23T09:35:40;98.28;;;33.28;;
63818;SDS011;49970;54.976;73.248;2024-02-23T09:38:06;86.00;;;32.45;;
63818;SDS011;49970;54.976;73.248;2024-02-23T09:40:33;90.53;;;34.45;;
63818;SDS011;49970;54.976;73.248;2024-02-23T09:42:59;79.35;;;32.92;;
63818;SDS011;49970;54.976;73.248;2024-02-23T09:45:26;70.43;;;30.33;;
63818;SDS011;49970;54.976;73.248;2024-02-23T09:47:54;89.07;;;33.70;;
63818;SDS011;49970;54.976;73.248;2024-02-23T09:50:23;70.55;;;29.90;;
63818;SDS011;49970;54.976;73.248;2024-02-23T09:52:50;73.35;;;28.70;;
63818;SDS011;49970;54.976;73.248;2024-02-23T09:55:17;89.15;;;35.03;;
63818;SDS011;49970;54.976;73.248;2024-02-23T09:58:48;87.72;;;33.83;;
63818;SDS011;49970;54.976;73.248;2024-02-23T10:01:17;108.88;;;36.72;;
63818;SDS011;49970;54.976;73.248;2024-02-23T10:04:46;92.68;;;35.15;;
63818;SDS011;49970;54.976;73.248;2024-02-23T10:07:15;94.55;;;35.95;;
63818;SDS011;49970;54.976;73.248;2024-02-23T10:09:42;83.80;;;32.05;;
63818;SDS011;49970;54.976;73.248;2024-02-23T10:12:08;93.97;;;33.28;;
63818;SDS011;49970;54.976;73.248;2024-02-23T10:14:35;133.10;;;51.88;;
63818;SDS011;49970;54.976;73.248;2024-02-23T10:17:01;142.80;;;54.55;;
63818;SDS011;49970;54.976;73.248;2024-02-23T10:19:28;143.80;;;55.42;;
63818;SDS011;49970;54.976;73.248;2024-02-23T10:21:57;145.25;;;56.72;;
63818;SDS011;49970;54.976;73.248;2024-02-23T10:24:24;144.88;;;54.40;;
63818;SDS011;49970;54.976;73.248;2024-02-23T10:26:53;135.52;;;55.90;;
63818;SDS011;49970;54.976;73.248;2024-02-23T10:29:20;154.05;;;56.22;;
63818;SDS011;49970;54.976;73.248;2024-02-23T10:31:47;130.57;;;51.55;;
63818;SDS011;49970;54.976;73.248;2024-02-23T10:34:17;222.88;;;93.43;;
63818;SDS011;49970;54.976;73.248;2024-02-23T10:36:45;235.55;;;102.90;;
63818;SDS011;49970;54.976;73.248;2024-02-23T10:39:17;276.45;;;123.30;;
63818;SDS011;49970;54.976;73.248;2024-02-23T10:41:47;258.42;;;109.10;;
63818;SDS011;49970;54.976;73.248;2024-02-23T10:44:24;209.75;;;82.57;;
63818;SDS011;49970;54.976;73.248;2024-02-23T10:46:52;215.13;;;79.53;;
63818;SDS011;49970;54.976;73.248;2024-02-23T10:49:20;221.40;;;94.20;;
63818;SDS011;49970;54.976;73.248;2024-02-23T10:51:52;243.80;;;99.78;;
63818;SDS011;49970;54.976;73.248;2024-02-23T10:54:19;212.93;;;87.53;;
63818;SDS011;49970;54.976;73.248;2024-02-23T10:56:48;163.68;;;65.05;;
63818;SDS011;49970;54.976;73.248;2024-02-23T10:59:16;181.18;;;72.75;;
63818;SDS011;49970;54.976;73.248;2024-02-23T11:01:45;191.18;;;70.35;;
63818;SDS011;49970;54.976;73.248;2024-02-23T11:04:15;179.75;;;69.10;;
63818;SDS011;49970;54.976;73.248;2024-02-23T11:06:48;178.73;;;70.20;;
63818;SDS011;49970;54.976;73.248;2024-02-23T11:09:22;208.10;;;78.60;;
63818;SDS011;49970;54.976;73.248;2024-02-23T11:11:57;184.73;;;81.05;;
63818;SDS011;49970;54.976;73.248;2024-02-23T11:14:37;185.60;;;83.50;;
63818;SDS011;49970;54.976;73.248;2024-02-23T11:17:04;206.35;;;87.95;;
63818;SDS011;49970;54.976;73.248;2024-02-23T11:19:35;199.88;;;90.03;;
63818;SDS011;49970;54.976;73.248;2024-02-23T11:22:03;204.75;;;90.28;;
63818;SDS011;49970;54.976;73.248;2024-02-23T11:24:30;200.15;;;93.50;;
63818;SDS011;49970;54.976;73.248;2024-02-23T11:26:59;210.48;;;99.75;;
63818;SDS011;49970;54.976;73.248;2024-02-23T11:29:27;211.50;;;101.57;;
63818;SDS011;49970;54.976;73.248;2024-02-23T11:31:55;209.43;;;98.40;;
63818;SDS011;49970;54.976;73.248;2024-02-23T11:34:26;215.57;;;105.05;;
63818;SDS011;49970;54.976;73.248;2024-02-23T11:36:56;239.50;;;111.45;;
63818;SDS011;49970;54.976;73.248;2024-02-23T11:39:25;223.25;;;110.38;;
63818;SDS011;49970;54.976;73.248;2024-02-23T11:41:53;229.50;;;112.57;;
63818;SDS011;49970;54.976;73.248;2024-02-23T11:44:19;221.90;;;110.60;;
63818;SDS011;49970;54.976;73.248;2024-02-23T11:46:46;228.48;;;110.32;;
63818;SDS011;49970;54.976;73.248;2024-02-23T11:49:15;224.60;;;106.60;;
63818;SDS011;49970;54.976;73.248;2024-02-23T11:51:45;225.77;;;112.05;;
63818;SDS011;49970;54.976;73.248;2024-02-23T11:54:12;224.57;;;110.05;;
63818;SDS011;49970;54.976;73.248;2024-02-23T11:56:40;242.50;;;114.68;;
63818;SDS011;49970;54.976;73.248;2024-02-23T11:59:07;233.63;;;115.88;;
63818;SDS011;49970;54.976;73.248;2024-02-23T12:01:35;244.02;;;116.13;;
63818;SDS011;49970;54.976;73.248;2024-02-23T12:04:01;238.63;;;118.85;;
63818;SDS011;49970;54.976;73.248;2024-02-23T12:06:27;235.35;;;121.88;;
63818;SDS011;49970;54.976;73.248;2024-02-23T12:08:58;230.35;;;119.28;;
63818;SDS011;49970;54.976;73.248;2024-02-23T12:11:24;226.52;;;113.40;;
63818;SDS011;49970;54.976;73.248;2024-02-23T12:13:51;240.93;;;120.35;;
63818;SDS011;49970;54.976;73.248;2024-02-23T12:16:36;240.77;;;116.78;;
63818;SDS011;49970;54.976;73.248;2024-02-23T12:19:07;238.23;;;115.68;;
63818;SDS011;49970;54.976;73.248;2024-02-23T12:21:34;237.43;;;113.22;;
63818;SDS011;49970;54.976;73.248;2024-02-23T12:24:04;231.48;;;112.95;;
63818;SDS011;49970;54.976;73.248;2024-02-23T12:26:34;228.68;;;111.80;;
63818;SDS011;49970;54.976;73.248;2024-02-23T12:29:01;228.45;;;113.45;;
63818;SDS011;49970;54.976;73.248;2024-02-23T12:31:39;253.45;;;117.88;;
63818;SDS011;49970;54.976;73.248;2024-02-23T12:34:05;234.20;;;114.05;;
63818;SDS011;49970;54.976;73.248;2024-02-23T12:36:34;228.15;;;114.97;;
63818;SDS011;49970;54.976;73.248;2024-02-23T12:39:14;226.90;;;118.20;;
63818;SDS011;49970;54.976;73.248;2024-02-23T12:41:40;245.13;;;119.65;;
63818;SDS011;49970;54.976;73.248;2024-02-23T12:44:06;253.15;;;124.25;;
63818;SDS011;49970;54.976;73.248;2024-02-23T12:46:33;239.95;;;124.57;;
63818;SDS011;49970;54.976;73.248;2024-02-23T12:48:59;252.00;;;129.00;;
63818;SDS011;49970;54.976;73.248;2024-02-23T12:51:31;264.73;;;134.27;;
63818;SDS011;49970;54.976;73.248;2024-02-23T12:53:57;260.20;;;122.65;;
63818;SDS011;49970;54.976;73.248;2024-02-23T12:56:26;269.40;;;130.38;;
63818;SDS011;49970;54.976;73.248;2024-02-23T12:58:52;255.95;;;125.32;;
63818;SDS011;49970;54.976;73.248;2024-02-23T13:01:20;261.73;;;133.85;;
63818;SDS011;49970;54.976;73.248;2024-02-23T13:03:47;275.73;;;131.93;;
63818;SDS011;49970;54.976;73.248;2024-02-23T13:06:14;287.45;;;139.48;;
63818;SDS011;49970;54.976;73.248;2024-02-23T13:08:41;276.10;;;142.43;;
63818;SDS011;49970;54.976;73.248;2024-02-23T13:11:08;274.33;;;137.60;;
63818;SDS011;49970;54.976;73.248;2024-02-23T13:13:35;284.17;;;138.13;;
63818;SDS011;49970;54.976;73.248;2024-02-23T13:16:01;274.75;;;135.90;;
63818;SDS011;49970;54.976;73.248;2024-02-23T13:18:28;283.90;;;139.10;;
63818;SDS011;49970;54.976;73.248;2024-02-23T13:20:54;246.55;;;136.63;;
63818;SDS011;49970;54.976;73.248;2024-02-23T13:23:30;275.88;;;135.10;;
63818;SDS011;49970;54.976;73.248;2024-02-23T13:25:57;264.17;;;136.30;;
63818;SDS011;49970;54.976;73.248;2024-02-23T13:28:23;264.13;;;128.60;;
63818;SDS011;49970;54.976;73.248;2024-02-23T13:30:50;268.00;;;130.65;;
63818;SDS011;49970;54.976;73.248;2024-02-23T13:33:16;255.23;;;131.13;;
63818;SDS011;49970;54.976;73.248;2024-02-23T13:35:45;256.13;;;129.35;;
63818;SDS011;49970;54.976;73.248;2024-02-23T13:38:12;263.08;;;127.75;;
63818;SDS011;49970;54.976;73.248;2024-02-23T13:40:38;260.65;;;130.00;;
63818;SDS011;49970;54.976;73.248;2024-02-23T13:43:04;280.17;;;132.20;;
63818;SDS011;49970;54.976;73.248;2024-02-23T13:45:31;273.98;;;141.73;;
63818;SDS011;49970;54.976;73.248;2024-02-23T13:47:59;275.55;;;142.00;;
63818;SDS011;49970;54.976;73.248;2024-02-23T13:50:27;258.77;;;138.02;;
63818;SDS011;49970;54.976;73.248;2024-02-23T13:52:54;267.75;;;137.55;;
63818;SDS011;49970;54.976;73.248;2024-02-23T13:55:20;257.60;;;135.43;;
63818;SDS011;49970;54.976;73.248;2024-02-23T13:57:49;274.20;;;136.77;;
63818;SDS011;49970;54.976;73.248;2024-02-23T14:00:17;280.50;;;143.23;;
63818;SDS011;49970;54.976;73.248;2024-02-23T14:02:44;278.80;;;141.73;;
63818;SDS011;49970;54.976;73.248;2024-02-23T14:05:11;291.13;;;147.27;;
63818;SDS011;49970;54.976;73.248;2024-02-23T14:07:38;289.30;;;151.98;;
63818;SDS011;49970;54.976;73.248;2024-02-23T14:10:04;301.63;;;152.50;;
63818;SDS011;49970;54.976;73.248;2024-02-23T14:12:31;306.27;;;149.40;;
63818;SDS011;49970;54.976;73.248;2024-02-23T14:14:58;280.77;;;140.48;;